sensor_id;sensor_type;location;lat;lon;timestamp;P1;durP1;ratioP1;P2;durP2;ratioP2
16892;SDS011;8563;52.242;9.098;2022-08-19T00:01:54;9.75;;;5.18;;
16892;SDS011;8563;52.242;9.098;2022-08-19T00:04:30;5.55;;;4.00;;
16892;SDS011;8563;52.242;9.098;2022-08-19T00:07:06;5.25;;;4.57;;
16892;SDS011;8563;52.242;9.098;2022-08-19T00:09:39;6.75;;;4.55;;
16892;SDS011;8563;52.242;9.098;2022-08-19T00:12:11;5.47;;;4.15;;
16892;SDS011;8563;52.242;9.098;2022-08-19T00:14:43;5.82;;;4.10;;
16892;SDS011;8563;52.242;9.098;2022-08-19T00:17:16;5.43;;;4.20;;
16892;SDS011;8563;52.242;9.098;2022-08-19T00:19:49;7.40;;;4.95;;
16892;SDS011;8563;52.242;9.098;2022-08-19T00:22:22;5.20;;;4.40;;
16892;SDS011;8563;52.242;9.098;2022-08-19T00:24:54;5.65;;;4.40;;
16892;SDS011;8563;52.242;9.098;2022-08-19T00:27:26;5.88;;;4.57;;
16892;SDS011;8563;52.242;9.098;2022-08-19T00:29:59;6.00;;;5.40;;
16892;SDS011;8563;52.242;9.098;2022-08-19T00:32:33;7.22;;;5.65;;
16892;SDS011;8563;52.242;9.098;2022-08-19T00:35:07;7.45;;;5.18;;
16892;SDS011;8563;52.242;9.098;2022-08-19T00:37:41;6.55;;;5.10;;
16892;SDS011;8563;52.242;9.098;2022-08-19T00:40:14;7.50;;;5.40;;
16892;SDS011;8563;52.242;9.098;2022-08-19T00:42:48;8.10;;;5.30;;
16892;SDS011;8563;52.242;9.098;2022-08-19T00:45:25;6.30;;;5.32;;
16892;SDS011;8563;52.242;9.098;2022-08-19T00:48:02;5.25;;;4.75;;
16892;SDS011;8563;52.242;9.098;2022-08-19T00:50:36;8.63;;;5.57;;
16892;SDS011;8563;52.242;9.098;2022-08-19T00:53:14;5.22;;;4.60;;
16892;SDS011;8563;52.242;9.098;2022-08-19T00:55:52;5.63;;;4.50;;
16892;SDS011;8563;52.242;9.098;2022-08-19T00:58:31;5.40;;;4.20;;
16892;SDS011;8563;52.242;9.098;2022-08-19T01:01:06;4.30;;;3.90;;
16892;SDS011;8563;52.242;9.098;2022-08-19T01:03:39;4.90;;;4.40;;
16892;SDS011;8563;52.242;9.098;2022-08-19T01:06:13;7.20;;;4.55;;
16892;SDS011;8563;52.242;9.098;2022-08-19T01:08:45;5.82;;;4.13;;
16892;SDS011;8563;52.242;9.098;2022-08-19T01:11:18;5.20;;;4.47;;
16892;SDS011;8563;52.242;9.098;2022-08-19T01:13:50;4.75;;;4.13;;
16892;SDS011;8563;52.242;9.098;2022-08-19T01:16:25;6.43;;;4.28;;
16892;SDS011;8563;52.242;9.098;2022-08-19T01:18:59;4.68;;;4.15;;
16892;SDS011;8563;52.242;9.098;2022-08-19T01:21:40;6.45;;;4.50;;
16892;SDS011;8563;52.242;9.098;2022-08-19T01:24:19;5.88;;;4.88;;
16892;SDS011;8563;52.242;9.098;2022-08-19T01:26:51;4.90;;;4.32;;
16892;SDS011;8563;52.242;9.098;2022-08-19T01:29:25;5.20;;;4.07;;
16892;SDS011;8563;52.242;9.098;2022-08-19T01:31:59;7.32;;;4.43;;
16892;SDS011;8563;52.242;9.098;2022-08-19T01:34:33;4.75;;;4.25;;
16892;SDS011;8563;52.242;9.098;2022-08-19T01:37:06;5.88;;;3.95;;
16892;SDS011;8563;52.242;9.098;2022-08-19T01:39:42;4.82;;;3.40;;
16892;SDS011;8563;52.242;9.098;2022-08-19T01:42:14;4.38;;;3.67;;
16892;SDS011;8563;52.242;9.098;2022-08-19T01:44:47;6.45;;;4.60;;
16892;SDS011;8563;52.242;9.098;2022-08-19T01:47:20;6.47;;;4.45;;
16892;SDS011;8563;52.242;9.098;2022-08-19T01:49:52;5.60;;;4.60;;
16892;SDS011;8563;52.242;9.098;2022-08-19T01:52:24;7.25;;;5.03;;
16892;SDS011;8563;52.242;9.098;2022-08-19T01:54:59;8.00;;;5.95;;
16892;SDS011;8563;52.242;9.098;2022-08-19T01:57:31;5.07;;;4.60;;
16892;SDS011;8563;52.242;9.098;2022-08-19T02:00:05;7.53;;;4.82;;
16892;SDS011;8563;52.242;9.098;2022-08-19T02:02:43;6.28;;;5.65;;
16892;SDS011;8563;52.242;9.098;2022-08-19T02:05:16;5.47;;;4.88;;
16892;SDS011;8563;52.242;9.098;2022-08-19T02:07:51;6.55;;;4.68;;
16892;SDS011;8563;52.242;9.098;2022-08-19T02:10:25;8.07;;;5.82;;
16892;SDS011;8563;52.242;9.098;2022-08-19T02:12:57;5.28;;;4.78;;
16892;SDS011;8563;52.242;9.098;2022-08-19T02:15:29;6.68;;;5.38;;
16892;SDS011;8563;52.242;9.098;2022-08-19T02:18:02;5.63;;;4.85;;
16892;SDS011;8563;52.242;9.098;2022-08-19T02:20:35;6.32;;;5.72;;
16892;SDS011;8563;52.242;9.098;2022-08-19T02:23:09;7.10;;;6.00;;
16892;SDS011;8563;52.242;9.098;2022-08-19T02:25:45;6.88;;;6.18;;
16892;SDS011;8563;52.242;9.098;2022-08-19T02:28:19;7.40;;;6.15;;
16892;SDS011;8563;52.242;9.098;2022-08-19T02:30:51;6.72;;;5.95;;
16892;SDS011;8563;52.242;9.098;2022-08-19T02:33:23;8.77;;;7.63;;
16892;SDS011;8563;52.242;9.098;2022-08-19T02:35:56;8.73;;;7.30;;
16892;SDS011;8563;52.242;9.098;2022-08-19T02:38:28;8.07;;;7.38;;
16892;SDS011;8563;52.242;9.098;2022-08-19T02:41:02;9.23;;;6.88;;
16892;SDS011;8563;52.242;9.098;2022-08-19T02:43:40;10.70;;;7.60;;
16892;SDS011;8563;52.242;9.098;2022-08-19T02:46:14;8.27;;;7.45;;
16892;SDS011;8563;52.242;9.098;2022-08-19T02:48:51;10.48;;;7.82;;
16892;SDS011;8563;52.242;9.098;2022-08-19T02:51:26;8.95;;;7.93;;
16892;SDS011;8563;52.242;9.098;2022-08-19T02:54:00;10.88;;;8.45;;
16892;SDS011;8563;52.242;9.098;2022-08-19T02:56:35;11.68;;;8.68;;
16892;SDS011;8563;52.242;9.098;2022-08-19T02:59:09;9.57;;;7.60;;
16892;SDS011;8563;52.242;9.098;2022-08-19T03:01:41;9.63;;;8.50;;
16892;SDS011;8563;52.242;9.098;2022-08-19T03:04:14;9.27;;;8.40;;
16892;SDS011;8563;52.242;9.098;2022-08-19T03:06:47;11.48;;;10.18;;
16892;SDS011;8563;52.242;9.098;2022-08-19T03:09:20;9.43;;;7.78;;
16892;SDS011;8563;52.242;9.098;2022-08-19T03:11:54;9.65;;;8.30;;
16892;SDS011;8563;52.242;9.098;2022-08-19T03:14:29;11.50;;;10.40;;
16892;SDS011;8563;52.242;9.098;2022-08-19T03:17:03;11.82;;;10.45;;
16892;SDS011;8563;52.242;9.098;2022-08-19T03:19:36;11.40;;;10.30;;
16892;SDS011;8563;52.242;9.098;2022-08-19T03:22:08;11.20;;;10.15;;
16892;SDS011;8563;52.242;9.098;2022-08-19T03:24:40;13.23;;;11.98;;
16892;SDS011;8563;52.242;9.098;2022-08-19T03:27:15;12.63;;;11.32;;
16892;SDS011;8563;52.242;9.098;2022-08-19T03:29:47;11.60;;;10.43;;
16892;SDS011;8563;52.242;9.098;2022-08-19T03:32:20;11.48;;;10.35;;
16892;SDS011;8563;52.242;9.098;2022-08-19T03:34:53;10.95;;;9.95;;
16892;SDS011;8563;52.242;9.098;2022-08-19T03:37:25;11.48;;;10.38;;
16892;SDS011;8563;52.242;9.098;2022-08-19T03:39:58;14.60;;;11.10;;
16892;SDS011;8563;52.242;9.098;2022-08-19T03:42:33;12.10;;;10.88;;
16892;SDS011;8563;52.242;9.098;2022-08-19T03:45:06;13.73;;;12.43;;
16892;SDS011;8563;52.242;9.098;2022-08-19T03:47:40;14.40;;;12.38;;
16892;SDS011;8563;52.242;9.098;2022-08-19T03:50:13;12.50;;;11.35;;
16892;SDS011;8563;52.242;9.098;2022-08-19T03:52:47;12.35;;;11.13;;
16892;SDS011;8563;52.242;9.098;2022-08-19T03:55:21;11.30;;;10.20;;
16892;SDS011;8563;52.242;9.098;2022-08-19T03:57:55;11.95;;;10.38;;
16892;SDS011;8563;52.242;9.098;2022-08-19T04:00:27;12.13;;;10.98;;
16892;SDS011;8563;52.242;9.098;2022-08-19T04:02:59;11.70;;;10.30;;
16892;SDS011;8563;52.242;9.098;2022-08-19T04:05:32;13.35;;;11.30;;
16892;SDS011;8563;52.242;9.098;2022-08-19T04:08:04;14.10;;;12.75;;
16892;SDS011;8563;52.242;9.098;2022-08-19T04:10:37;13.82;;;12.50;;
16892;SDS011;8563;52.242;9.098;2022-08-19T04:13:12;13.52;;;11.70;;
16892;SDS011;8563;52.242;9.098;2022-08-19T04:15:44;13.88;;;12.48;;
16892;SDS011;8563;52.242;9.098;2022-08-19T04:18:17;13.32;;;11.95;;
16892;SDS011;8563;52.242;9.098;2022-08-19T04:20:50;13.43;;;12.13;;
16892;SDS011;8563;52.242;9.098;2022-08-19T04:23:23;12.95;;;11.68;;
16892;SDS011;8563;52.242;9.098;2022-08-19T04:25:55;12.10;;;10.90;;
16892;SDS011;8563;52.242;9.098;2022-08-19T04:28:29;11.23;;;10.02;;
16892;SDS011;8563;52.242;9.098;2022-08-19T04:31:02;11.95;;;10.07;;
16892;SDS011;8563;52.242;9.098;2022-08-19T04:33:34;16.10;;;14.40;;
16892;SDS011;8563;52.242;9.098;2022-08-19T04:36:07;15.50;;;13.90;;
16892;SDS011;8563;52.242;9.098;2022-08-19T04:38:46;15.27;;;13.63;;
16892;SDS011;8563;52.242;9.098;2022-08-19T04:41:19;15.40;;;13.57;;
16892;SDS011;8563;52.242;9.098;2022-08-19T04:44:11;12.98;;;11.85;;
16892;SDS011;8563;52.242;9.098;2022-08-19T04:46:44;14.85;;;13.38;;
16892;SDS011;8563;52.242;9.098;2022-08-19T04:49:17;13.00;;;11.70;;
16892;SDS011;8563;52.242;9.098;2022-08-19T04:51:52;16.63;;;14.88;;
16892;SDS011;8563;52.242;9.098;2022-08-19T04:54:25;15.50;;;14.00;;
16892;SDS011;8563;52.242;9.098;2022-08-19T04:56:58;15.90;;;14.27;;
16892;SDS011;8563;52.242;9.098;2022-08-19T04:59:32;13.15;;;11.88;;
16892;SDS011;8563;52.242;9.098;2022-08-19T05:02:06;14.70;;;13.27;;
16892;SDS011;8563;52.242;9.098;2022-08-19T05:04:39;14.90;;;13.37;;
16892;SDS011;8563;52.242;9.098;2022-08-19T05:07:11;14.85;;;13.40;;
16892;SDS011;8563;52.242;9.098;2022-08-19T05:09:44;15.95;;;14.32;;
16892;SDS011;8563;52.242;9.098;2022-08-19T05:12:16;14.93;;;13.40;;
16892;SDS011;8563;52.242;9.098;2022-08-19T05:14:50;20.73;;;16.80;;
16892;SDS011;8563;52.242;9.098;2022-08-19T05:17:23;17.02;;;15.23;;
16892;SDS011;8563;52.242;9.098;2022-08-19T05:19:55;17.10;;;15.10;;
16892;SDS011;8563;52.242;9.098;2022-08-19T05:22:46;16.73;;;14.13;;
16892;SDS011;8563;52.242;9.098;2022-08-19T05:25:19;18.70;;;14.20;;
16892;SDS011;8563;52.242;9.098;2022-08-19T05:27:52;16.10;;;14.40;;
16892;SDS011;8563;52.242;9.098;2022-08-19T05:30:26;16.60;;;15.00;;
16892;SDS011;8563;52.242;9.098;2022-08-19T05:32:58;17.17;;;15.48;;
16892;SDS011;8563;52.242;9.098;2022-08-19T05:35:31;17.83;;;15.95;;
16892;SDS011;8563;52.242;9.098;2022-08-19T05:38:03;17.10;;;15.32;;
16892;SDS011;8563;52.242;9.098;2022-08-19T05:40:37;16.45;;;14.77;;
16892;SDS011;8563;52.242;9.098;2022-08-19T05:43:10;18.33;;;15.43;;
16892;SDS011;8563;52.242;9.098;2022-08-19T05:45:47;15.48;;;14.02;;
16892;SDS011;8563;52.242;9.098;2022-08-19T05:48:20;16.00;;;14.32;;
16892;SDS011;8563;52.242;9.098;2022-08-19T05:50:53;18.38;;;16.48;;
16892;SDS011;8563;52.242;9.098;2022-08-19T05:53:25;19.63;;;16.13;;
16892;SDS011;8563;52.242;9.098;2022-08-19T05:55:57;17.15;;;15.60;;
16892;SDS011;8563;52.242;9.098;2022-08-19T05:58:34;16.73;;;14.93;;
16892;SDS011;8563;52.242;9.098;2022-08-19T06:01:11;18.40;;;16.60;;
16892;SDS011;8563;52.242;9.098;2022-08-19T06:03:45;16.25;;;14.68;;
16892;SDS011;8563;52.242;9.098;2022-08-19T06:06:18;15.18;;;13.82;;
16892;SDS011;8563;52.242;9.098;2022-08-19T06:08:51;16.33;;;14.30;;
16892;SDS011;8563;52.242;9.098;2022-08-19T06:11:24;16.67;;;14.98;;
16892;SDS011;8563;52.242;9.098;2022-08-19T06:14:04;17.90;;;16.15;;
16892;SDS011;8563;52.242;9.098;2022-08-19T06:16:41;16.20;;;14.48;;
16892;SDS011;8563;52.242;9.098;2022-08-19T06:19:17;18.38;;;16.52;;
16892;SDS011;8563;52.242;9.098;2022-08-19T06:21:51;18.88;;;16.52;;
16892;SDS011;8563;52.242;9.098;2022-08-19T06:24:24;17.20;;;15.50;;
16892;SDS011;8563;52.242;9.098;2022-08-19T06:26:58;16.38;;;14.80;;
16892;SDS011;8563;52.242;9.098;2022-08-19T06:29:32;17.35;;;14.95;;
16892;SDS011;8563;52.242;9.098;2022-08-19T06:32:06;18.20;;;15.45;;
16892;SDS011;8563;52.242;9.098;2022-08-19T06:34:39;15.63;;;14.05;;
16892;SDS011;8563;52.242;9.098;2022-08-19T06:37:12;15.75;;;14.35;;
16892;SDS011;8563;52.242;9.098;2022-08-19T06:39:44;16.15;;;14.32;;
16892;SDS011;8563;52.242;9.098;2022-08-19T06:42:16;16.42;;;13.75;;
16892;SDS011;8563;52.242;9.098;2022-08-19T06:44:49;15.13;;;13.63;;
16892;SDS011;8563;52.242;9.098;2022-08-19T06:47:22;15.32;;;13.60;;
16892;SDS011;8563;52.242;9.098;2022-08-19T06:49:56;14.10;;;12.55;;
16892;SDS011;8563;52.242;9.098;2022-08-19T06:52:34;15.45;;;13.13;;
16892;SDS011;8563;52.242;9.098;2022-08-19T06:55:07;15.60;;;14.00;;
16892;SDS011;8563;52.242;9.098;2022-08-19T06:57:40;13.80;;;12.40;;
16892;SDS011;8563;52.242;9.098;2022-08-19T07:00:12;14.73;;;13.23;;
16892;SDS011;8563;52.242;9.098;2022-08-19T07:02:46;13.90;;;12.50;;
16892;SDS011;8563;52.242;9.098;2022-08-19T07:05:19;13.43;;;12.02;;
16892;SDS011;8563;52.242;9.098;2022-08-19T07:07:51;14.18;;;12.70;;
16892;SDS011;8563;52.242;9.098;2022-08-19T07:10:24;13.20;;;11.80;;
16892;SDS011;8563;52.242;9.098;2022-08-19T07:12:56;12.35;;;11.10;;
16892;SDS011;8563;52.242;9.098;2022-08-19T07:15:29;16.02;;;11.00;;
16892;SDS011;8563;52.242;9.098;2022-08-19T07:18:03;12.32;;;11.07;;
16892;SDS011;8563;52.242;9.098;2022-08-19T07:20:36;12.50;;;10.80;;
16892;SDS011;8563;52.242;9.098;2022-08-19T07:23:09;12.23;;;10.90;;
16892;SDS011;8563;52.242;9.098;2022-08-19T07:25:42;11.23;;;10.23;;
16892;SDS011;8563;52.242;9.098;2022-08-19T07:28:14;10.27;;;9.38;;
16892;SDS011;8563;52.242;9.098;2022-08-19T07:30:46;12.10;;;10.40;;
16892;SDS011;8563;52.242;9.098;2022-08-19T07:33:22;9.45;;;8.52;;
16892;SDS011;8563;52.242;9.098;2022-08-19T07:35:54;10.50;;;9.55;;
16892;SDS011;8563;52.242;9.098;2022-08-19T07:38:26;10.60;;;9.52;;
16892;SDS011;8563;52.242;9.098;2022-08-19T07:40:59;9.32;;;8.50;;
16892;SDS011;8563;52.242;9.098;2022-08-19T07:43:32;10.20;;;7.13;;
16892;SDS011;8563;52.242;9.098;2022-08-19T07:46:05;7.03;;;6.30;;
16892;SDS011;8563;52.242;9.098;2022-08-19T07:48:41;6.25;;;5.65;;
16892;SDS011;8563;52.242;9.098;2022-08-19T07:51:17;6.30;;;5.28;;
16892;SDS011;8563;52.242;9.098;2022-08-19T07:53:52;9.50;;;6.43;;
16892;SDS011;8563;52.242;9.098;2022-08-19T07:56:24;6.93;;;5.25;;
16892;SDS011;8563;52.242;9.098;2022-08-19T07:58:57;6.50;;;5.25;;
16892;SDS011;8563;52.242;9.098;2022-08-19T08:01:29;6.40;;;5.47;;
16892;SDS011;8563;52.242;9.098;2022-08-19T08:04:03;6.63;;;5.93;;
16892;SDS011;8563;52.242;9.098;2022-08-19T08:06:53;7.25;;;5.72;;
16892;SDS011;8563;52.242;9.098;2022-08-19T08:09:43;8.82;;;6.60;;
16892;SDS011;8563;52.242;9.098;2022-08-19T08:12:17;5.97;;;5.22;;
16892;SDS011;8563;52.242;9.098;2022-08-19T08:14:53;7.05;;;6.00;;
16892;SDS011;8563;52.242;9.098;2022-08-19T08:17:27;6.95;;;5.40;;
16892;SDS011;8563;52.242;9.098;2022-08-19T08:20:01;6.75;;;5.47;;
16892;SDS011;8563;52.242;9.098;2022-08-19T08:22:36;5.93;;;4.45;;
16892;SDS011;8563;52.242;9.098;2022-08-19T08:25:31;5.15;;;4.60;;
16892;SDS011;8563;52.242;9.098;2022-08-19T08:28:04;8.90;;;5.65;;
16892;SDS011;8563;52.242;9.098;2022-08-19T08:30:39;6.25;;;5.40;;
16892;SDS011;8563;52.242;9.098;2022-08-19T08:33:12;5.78;;;4.28;;
16892;SDS011;8563;52.242;9.098;2022-08-19T08:35:47;7.30;;;4.70;;
16892;SDS011;8563;52.242;9.098;2022-08-19T08:38:19;6.45;;;4.93;;
16892;SDS011;8563;52.242;9.098;2022-08-19T08:40:53;4.45;;;3.90;;
16892;SDS011;8563;52.242;9.098;2022-08-19T08:43:34;5.40;;;4.72;;
16892;SDS011;8563;52.242;9.098;2022-08-19T08:46:10;4.53;;;3.83;;
16892;SDS011;8563;52.242;9.098;2022-08-19T08:48:46;5.40;;;4.32;;
16892;SDS011;8563;52.242;9.098;2022-08-19T08:51:25;6.57;;;4.47;;
16892;SDS011;8563;52.242;9.098;2022-08-19T08:54:04;6.80;;;4.75;;
16892;SDS011;8563;52.242;9.098;2022-08-19T08:56:39;5.82;;;4.32;;
16892;SDS011;8563;52.242;9.098;2022-08-19T08:59:15;6.22;;;5.32;;
16892;SDS011;8563;52.242;9.098;2022-08-19T09:01:52;7.47;;;4.68;;
16892;SDS011;8563;52.242;9.098;2022-08-19T09:04:24;5.90;;;5.00;;
16892;SDS011;8563;52.242;9.098;2022-08-19T09:07:01;5.72;;;5.22;;
16892;SDS011;8563;52.242;9.098;2022-08-19T09:09:46;5.22;;;4.25;;
16892;SDS011;8563;52.242;9.098;2022-08-19T09:12:23;6.30;;;3.75;;
16892;SDS011;8563;52.242;9.098;2022-08-19T09:15:05;4.50;;;4.10;;
16892;SDS011;8563;52.242;9.098;2022-08-19T09:17:43;4.07;;;3.67;;
16892;SDS011;8563;52.242;9.098;2022-08-19T09:20:17;4.82;;;4.32;;
16892;SDS011;8563;52.242;9.098;2022-08-19T09:22:53;6.45;;;4.85;;
16892;SDS011;8563;52.242;9.098;2022-08-19T09:25:25;6.28;;;4.93;;
16892;SDS011;8563;52.242;9.098;2022-08-19T09:27:58;5.40;;;4.38;;
16892;SDS011;8563;52.242;9.098;2022-08-19T09:30:34;7.30;;;4.97;;
16892;SDS011;8563;52.242;9.098;2022-08-19T09:33:11;6.13;;;4.82;;
16892;SDS011;8563;52.242;9.098;2022-08-19T09:35:43;5.00;;;4.53;;
16892;SDS011;8563;52.242;9.098;2022-08-19T09:38:17;5.78;;;4.45;;
16892;SDS011;8563;52.242;9.098;2022-08-19T09:40:50;4.57;;;3.70;;
16892;SDS011;8563;52.242;9.098;2022-08-19T09:43:22;4.28;;;3.88;;
16892;SDS011;8563;52.242;9.098;2022-08-19T09:45:56;4.00;;;3.60;;
16892;SDS011;8563;52.242;9.098;2022-08-19T09:48:30;4.57;;;3.85;;
16892;SDS011;8563;52.242;9.098;2022-08-19T09:51:03;3.67;;;3.35;;
16892;SDS011;8563;52.242;9.098;2022-08-19T09:53:39;4.60;;;3.65;;
16892;SDS011;8563;52.242;9.098;2022-08-19T09:56:12;3.10;;;2.80;;
16892;SDS011;8563;52.242;9.098;2022-08-19T09:58:44;3.17;;;2.85;;
16892;SDS011;8563;52.242;9.098;2022-08-19T10:01:17;5.13;;;2.97;;
16892;SDS011;8563;52.242;9.098;2022-08-19T10:03:52;4.97;;;3.58;;
16892;SDS011;8563;52.242;9.098;2022-08-19T10:06:27;4.18;;;2.45;;
16892;SDS011;8563;52.242;9.098;2022-08-19T10:09:04;3.20;;;2.30;;
16892;SDS011;8563;52.242;9.098;2022-08-19T10:11:39;3.33;;;2.50;;
16892;SDS011;8563;52.242;9.098;2022-08-19T10:14:12;3.70;;;2.78;;
16892;SDS011;8563;52.242;9.098;2022-08-19T10:16:45;3.15;;;2.38;;
16892;SDS011;8563;52.242;9.098;2022-08-19T10:19:17;2.83;;;2.50;;
16892;SDS011;8563;52.242;9.098;2022-08-19T10:21:51;2.45;;;2.10;;
16892;SDS011;8563;52.242;9.098;2022-08-19T10:24:25;3.15;;;2.30;;
16892;SDS011;8563;52.242;9.098;2022-08-19T10:26:58;2.40;;;2.17;;
16892;SDS011;8563;52.242;9.098;2022-08-19T10:29:33;2.53;;;2.00;;
16892;SDS011;8563;52.242;9.098;2022-08-19T10:32:07;2.47;;;2.05;;
16892;SDS011;8563;52.242;9.098;2022-08-19T10:34:40;4.18;;;2.28;;
16892;SDS011;8563;52.242;9.098;2022-08-19T10:37:12;2.72;;;2.00;;
16892;SDS011;8563;52.242;9.098;2022-08-19T10:39:46;2.53;;;2.10;;
16892;SDS011;8563;52.242;9.098;2022-08-19T10:42:19;2.33;;;2.10;;
16892;SDS011;8563;52.242;9.098;2022-08-19T10:44:51;2.70;;;2.22;;
16892;SDS011;8563;52.242;9.098;2022-08-19T10:47:23;3.22;;;1.98;;
16892;SDS011;8563;52.242;9.098;2022-08-19T10:49:56;2.92;;;2.58;;
16892;SDS011;8563;52.242;9.098;2022-08-19T10:52:46;4.88;;;2.58;;
16892;SDS011;8563;52.242;9.098;2022-08-19T10:55:22;3.15;;;2.15;;
16892;SDS011;8563;52.242;9.098;2022-08-19T10:58:12;4.65;;;2.17;;
16892;SDS011;8563;52.242;9.098;2022-08-19T11:00:50;2.35;;;2.10;;
16892;SDS011;8563;52.242;9.098;2022-08-19T11:03:25;1.70;;;1.58;;
16892;SDS011;8563;52.242;9.098;2022-08-19T11:06:00;1.70;;;1.60;;
16892;SDS011;8563;52.242;9.098;2022-08-19T11:08:34;1.80;;;1.50;;
16892;SDS011;8563;52.242;9.098;2022-08-19T11:11:09;2.22;;;1.65;;
16892;SDS011;8563;52.242;9.098;2022-08-19T11:13:42;1.50;;;1.40;;
16892;SDS011;8563;52.242;9.098;2022-08-19T11:16:15;1.58;;;1.30;;
16892;SDS011;8563;52.242;9.098;2022-08-19T11:18:50;1.92;;;1.30;;
16892;SDS011;8563;52.242;9.098;2022-08-19T11:21:25;2.05;;;1.10;;
16892;SDS011;8563;52.242;9.098;2022-08-19T11:23:59;3.92;;;1.20;;
16892;SDS011;8563;52.242;9.098;2022-08-19T11:26:35;1.33;;;1.23;;
16892;SDS011;8563;52.242;9.098;2022-08-19T11:29:08;1.80;;;1.25;;
16892;SDS011;8563;52.242;9.098;2022-08-19T11:31:44;1.55;;;1.25;;
16892;SDS011;8563;52.242;9.098;2022-08-19T11:34:18;2.20;;;1.10;;
16892;SDS011;8563;52.242;9.098;2022-08-19T11:36:51;4.00;;;1.45;;
16892;SDS011;8563;52.242;9.098;2022-08-19T11:39:25;1.35;;;1.02;;
16892;SDS011;8563;52.242;9.098;2022-08-19T11:42:00;2.03;;;1.30;;
16892;SDS011;8563;52.242;9.098;2022-08-19T11:44:54;2.50;;;1.60;;
16892;SDS011;8563;52.242;9.098;2022-08-19T11:47:26;3.83;;;1.58;;
16892;SDS011;8563;52.242;9.098;2022-08-19T11:49:59;2.63;;;1.50;;
16892;SDS011;8563;52.242;9.098;2022-08-19T11:52:31;3.25;;;1.23;;
16892;SDS011;8563;52.242;9.098;2022-08-19T11:55:04;3.70;;;1.48;;
16892;SDS011;8563;52.242;9.098;2022-08-19T11:57:38;3.58;;;1.35;;
16892;SDS011;8563;52.242;9.098;2022-08-19T12:00:13;2.10;;;1.40;;
16892;SDS011;8563;52.242;9.098;2022-08-19T12:02:47;2.25;;;1.50;;
16892;SDS011;8563;52.242;9.098;2022-08-19T12:05:19;2.33;;;1.58;;
16892;SDS011;8563;52.242;9.098;2022-08-19T12:07:52;3.28;;;1.42;;
16892;SDS011;8563;52.242;9.098;2022-08-19T12:10:24;4.63;;;1.50;;
16892;SDS011;8563;52.242;9.098;2022-08-19T12:12:58;1.60;;;1.48;;
16892;SDS011;8563;52.242;9.098;2022-08-19T12:15:30;2.85;;;1.40;;
16892;SDS011;8563;52.242;9.098;2022-08-19T12:18:07;2.40;;;1.35;;
16892;SDS011;8563;52.242;9.098;2022-08-19T12:20:42;2.78;;;1.80;;
16892;SDS011;8563;52.242;9.098;2022-08-19T12:23:16;1.70;;;1.50;;
16892;SDS011;8563;52.242;9.098;2022-08-19T12:25:48;2.75;;;1.80;;
16892;SDS011;8563;52.242;9.098;2022-08-19T12:28:23;2.80;;;1.70;;
16892;SDS011;8563;52.242;9.098;2022-08-19T12:30:56;2.10;;;1.58;;
16892;SDS011;8563;52.242;9.098;2022-08-19T12:33:29;2.00;;;1.80;;
16892;SDS011;8563;52.242;9.098;2022-08-19T12:36:02;2.20;;;1.48;;
16892;SDS011;8563;52.242;9.098;2022-08-19T12:38:37;2.17;;;1.50;;
16892;SDS011;8563;52.242;9.098;2022-08-19T12:41:11;2.47;;;1.88;;
16892;SDS011;8563;52.242;9.098;2022-08-19T12:43:46;2.35;;;1.52;;
16892;SDS011;8563;52.242;9.098;2022-08-19T12:46:19;1.92;;;1.73;;
16892;SDS011;8563;52.242;9.098;2022-08-19T12:48:52;2.40;;;1.75;;
16892;SDS011;8563;52.242;9.098;2022-08-19T12:51:24;3.08;;;1.58;;
16892;SDS011;8563;52.242;9.098;2022-08-19T12:53:57;3.20;;;1.88;;
16892;SDS011;8563;52.242;9.098;2022-08-19T12:56:29;2.15;;;1.70;;
16892;SDS011;8563;52.242;9.098;2022-08-19T12:59:04;1.90;;;1.70;;
16892;SDS011;8563;52.242;9.098;2022-08-19T13:01:38;3.50;;;1.90;;
16892;SDS011;8563;52.242;9.098;2022-08-19T13:04:11;2.15;;;1.83;;
16892;SDS011;8563;52.242;9.098;2022-08-19T13:06:43;1.83;;;1.60;;
16892;SDS011;8563;52.242;9.098;2022-08-19T13:09:16;2.75;;;1.98;;
16892;SDS011;8563;52.242;9.098;2022-08-19T13:11:48;1.70;;;1.60;;
16892;SDS011;8563;52.242;9.098;2022-08-19T13:14:22;1.77;;;1.67;;
16892;SDS011;8563;52.242;9.098;2022-08-19T13:16:54;1.95;;;1.55;;
16892;SDS011;8563;52.242;9.098;2022-08-19T13:19:27;3.22;;;1.58;;
16892;SDS011;8563;52.242;9.098;2022-08-19T13:22:01;2.35;;;1.67;;
16892;SDS011;8563;52.242;9.098;2022-08-19T13:24:33;2.17;;;1.50;;
16892;SDS011;8563;52.242;9.098;2022-08-19T13:27:06;3.50;;;1.70;;
16892;SDS011;8563;52.242;9.098;2022-08-19T13:29:41;2.17;;;1.48;;
16892;SDS011;8563;52.242;9.098;2022-08-19T13:32:31;1.70;;;1.60;;
16892;SDS011;8563;52.242;9.098;2022-08-19T13:35:20;2.40;;;1.60;;
16892;SDS011;8563;52.242;9.098;2022-08-19T13:37:53;1.80;;;1.70;;
16892;SDS011;8563;52.242;9.098;2022-08-19T13:40:25;1.40;;;1.30;;
16892;SDS011;8563;52.242;9.098;2022-08-19T13:42:59;1.70;;;1.60;;
16892;SDS011;8563;52.242;9.098;2022-08-19T13:45:34;1.88;;;1.52;;
16892;SDS011;8563;52.242;9.098;2022-08-19T13:48:07;1.83;;;1.63;;
16892;SDS011;8563;52.242;9.098;2022-08-19T13:50:40;1.60;;;1.50;;
16892;SDS011;8563;52.242;9.098;2022-08-19T13:53:14;1.80;;;1.40;;
16892;SDS011;8563;52.242;9.098;2022-08-19T13:55:47;2.50;;;1.55;;
16892;SDS011;8563;52.242;9.098;2022-08-19T13:58:21;1.60;;;1.50;;
16892;SDS011;8563;52.242;9.098;2022-08-19T14:00:55;2.45;;;1.60;;
16892;SDS011;8563;52.242;9.098;2022-08-19T14:03:29;4.93;;;1.80;;
16892;SDS011;8563;52.242;9.098;2022-08-19T14:06:02;2.58;;;1.52;;
16892;SDS011;8563;52.242;9.098;2022-08-19T14:08:35;3.40;;;1.70;;
16892;SDS011;8563;52.242;9.098;2022-08-19T14:11:09;4.35;;;1.90;;
16892;SDS011;8563;52.242;9.098;2022-08-19T14:13:42;1.67;;;1.58;;
16892;SDS011;8563;52.242;9.098;2022-08-19T14:16:16;2.63;;;1.50;;
16892;SDS011;8563;52.242;9.098;2022-08-19T14:18:49;2.53;;;1.90;;
16892;SDS011;8563;52.242;9.098;2022-08-19T14:21:22;1.60;;;1.50;;
16892;SDS011;8563;52.242;9.098;2022-08-19T14:23:56;1.85;;;1.75;;
16892;SDS011;8563;52.242;9.098;2022-08-19T14:26:28;2.45;;;1.67;;
16892;SDS011;8563;52.242;9.098;2022-08-19T14:29:01;2.42;;;1.33;;
16892;SDS011;8563;52.242;9.098;2022-08-19T14:31:35;3.17;;;1.60;;
16892;SDS011;8563;52.242;9.098;2022-08-19T14:34:07;1.83;;;1.70;;
16892;SDS011;8563;52.242;9.098;2022-08-19T14:36:40;1.73;;;1.58;;
16892;SDS011;8563;52.242;9.098;2022-08-19T14:39:12;1.67;;;1.58;;
16892;SDS011;8563;52.242;9.098;2022-08-19T14:41:45;1.50;;;1.40;;
16892;SDS011;8563;52.242;9.098;2022-08-19T14:44:17;2.65;;;1.60;;
16892;SDS011;8563;52.242;9.098;2022-08-19T14:46:51;2.15;;;1.70;;
16892;SDS011;8563;52.242;9.098;2022-08-19T14:49:23;2.50;;;1.85;;
16892;SDS011;8563;52.242;9.098;2022-08-19T14:51:55;2.55;;;1.70;;
16892;SDS011;8563;52.242;9.098;2022-08-19T14:54:28;1.80;;;1.50;;
16892;SDS011;8563;52.242;9.098;2022-08-19T14:57:01;1.70;;;1.40;;
16892;SDS011;8563;52.242;9.098;2022-08-19T14:59:34;1.85;;;1.60;;
16892;SDS011;8563;52.242;9.098;2022-08-19T15:02:10;3.75;;;1.70;;
16892;SDS011;8563;52.242;9.098;2022-08-19T15:04:42;1.50;;;1.40;;
16892;SDS011;8563;52.242;9.098;2022-08-19T15:07:15;3.25;;;1.60;;
16892;SDS011;8563;52.242;9.098;2022-08-19T15:09:48;1.50;;;1.40;;
16892;SDS011;8563;52.242;9.098;2022-08-19T15:12:21;2.63;;;1.38;;
16892;SDS011;8563;52.242;9.098;2022-08-19T15:14:54;2.97;;;1.52;;
16892;SDS011;8563;52.242;9.098;2022-08-19T15:17:28;2.03;;;1.60;;
16892;SDS011;8563;52.242;9.098;2022-08-19T15:20:01;1.60;;;1.50;;
16892;SDS011;8563;52.242;9.098;2022-08-19T15:22:34;1.52;;;1.30;;
16892;SDS011;8563;52.242;9.098;2022-08-19T15:25:07;1.50;;;1.40;;
16892;SDS011;8563;52.242;9.098;2022-08-19T15:27:42;2.17;;;1.38;;
16892;SDS011;8563;52.242;9.098;2022-08-19T15:30:18;1.75;;;1.60;;
16892;SDS011;8563;52.242;9.098;2022-08-19T15:32:53;2.85;;;1.60;;
16892;SDS011;8563;52.242;9.098;2022-08-19T15:35:27;3.28;;;1.70;;